Time;durP1;ratioP1;P1;durP2;ratioP2;P2;SDS_P1;SDS_P2;PMS_P1;PMS_P2;Temp;Humidity;BMP_temperature;BMP_pressure;BME280_temperature;BME280_humidity;BME280_pressure;Samples;Min_cycle;Max_cycle;Signal;HPM_P1;HPM_P2
2022/09/08 00:00:39;;;;;;;17.58;15.82;;;16.60;99.90;;;;;;5047435;28;20041;-50
2022/09/08 00:03:08;;;;;;;18.58;17.02;;;16.60;99.90;;;;;;5028756;28;20128;-50
2022/09/08 00:05:41;;;;;;;17.77;16.27;;;16.60;99.90;;;;;;5047912;28;20084;-48
2022/09/08 00:08:09;;;;;;;18.63;17.02;;;16.70;99.90;;;;;;5048616;28;20106;-47
2022/09/08 00:10:37;;;;;;;17.85;16.23;;;16.60;99.90;;;;;;5030963;28;20131;-47
2022/09/08 00:13:07;;;;;;;18.85;17.25;;;16.70;99.90;;;;;;5046813;28;20813;-48
2022/09/08 00:15:37;;;;;;;20.50;18.35;;;16.70;99.90;;;;;;5046767;28;20967;-48
2022/09/08 00:18:04;;;;;;;20.42;18.60;;;16.70;99.90;;;;;;5046390;28;20045;-47
2022/09/08 00:20:30;;;;;;;19.25;17.45;;;16.70;99.90;;;;;;5048177;28;20136;-51
2022/09/08 00:22:56;;;;;;;20.85;18.95;;;16.60;99.90;;;;;;5048178;28;20047;-54
2022/09/08 00:25:22;;;;;;;20.70;18.80;;;16.60;99.90;;;;;;5047906;28;20511;-48
2022/09/08 00:27:48;;;;;;;20.88;19.17;;;16.70;99.90;;;;;;5047461;28;20058;-50
2022/09/08 00:30:14;;;;;;;21.73;19.73;;;16.70;99.90;;;;;;5049156;28;20059;-50
2022/09/08 00:32:40;;;;;;;21.13;19.30;;;16.60;99.90;;;;;;5047657;28;20053;-49
2022/09/08 00:35:14;;;;;;;23.67;21.35;;;16.60;99.90;;;;;;5048590;28;20084;-47
2022/09/08 00:37:43;;;;;;;23.63;21.63;;;16.60;99.90;;;;;;5047732;28;20091;-50
2022/09/08 00:40:09;;;;;;;23.42;21.38;;;16.60;99.90;;;;;;5048057;28;20053;-46
2022/09/08 00:42:36;;;;;;;24.65;22.30;;;16.60;99.90;;;;;;5028975;28;20057;-46
2022/09/08 00:45:02;;;;;;;23.30;21.40;;;16.60;99.90;;;;;;5029904;28;20084;-48
2022/09/08 00:47:54;;;;;;;24.95;22.60;;;16.60;99.90;;;;;;5047114;28;20683;-48
2022/09/08 00:50:26;;;;;;;26.00;23.80;;;16.50;99.90;;;;;;5047177;28;20049;-48
2022/09/08 00:52:59;;;;;;;27.05;24.63;;;16.50;99.90;;;;;;5029588;28;20071;-49
2022/09/08 00:55:25;;;;;;;;;;;16.50;99.90;;;;;;5030509;28;20040;-49
2022/09/08 00:57:51;;;;;;;27.27;24.98;;;16.50;99.90;;;;;;5047075;28;19925;-47
2022/09/08 01:00:18;;;;;;;27.65;25.23;;;16.40;99.90;;;;;;5045975;28;20083;-47
2022/09/08 01:02:45;;;;;;;26.65;24.23;;;16.50;99.90;;;;;;5045488;28;20508;-50
2022/09/08 01:05:14;;;;;;;28.13;25.75;;;16.50;99.90;;;;;;5045354;28;20049;-46
2022/09/08 01:13:45;;;;;;;30.13;27.60;;;16.50;99.90;;;;;;5044974;28;20049;-48
2022/09/08 01:16:11;;;;;;;31.77;28.67;;;16.50;99.90;;;;;;5046134;28;20056;-47
2022/09/08 01:18:38;;;;;;;32.85;29.90;;;16.60;99.90;;;;;;5045607;28;20136;-46
2022/09/08 01:21:41;;;;;;;32.67;29.85;;;16.60;99.90;;;;;;5045097;28;20041;-50
2022/09/08 01:24:36;;;;;;;34.80;31.52;;;16.60;99.90;;;;;;5043664;28;20426;-49
2022/09/08 01:27:24;;;;;;;31.13;28.33;;;16.60;99.90;;;;;;5045191;28;20057;-47
2022/09/08 01:29:56;;;;;;;33.50;30.40;;;16.60;99.90;;;;;;5046979;28;20052;-50
2022/09/08 01:32:23;;;;;;;34.72;31.63;;;16.60;99.90;;;;;;5046890;28;20048;-47
2022/09/08 01:34:50;;;;;;;34.55;31.23;;;16.60;99.90;;;;;;5046875;28;20080;-47
2022/09/08 01:37:16;;;;;;;34.75;31.38;;;16.60;99.90;;;;;;5047220;28;20603;-48
2022/09/08 01:39:43;;;;;;;35.75;32.70;;;16.70;99.90;;;;;;5047034;28;20135;-47
2022/09/08 01:42:09;;;;;;;37.45;34.17;;;16.60;99.90;;;;;;5046138;28;20053;-48
2022/09/08 01:44:35;;;;;;;36.90;33.70;;;16.70;99.90;;;;;;5046001;28;20066;-49
2022/09/08 01:47:01;;;;;;;37.35;33.97;;;16.70;99.90;;;;;;5047142;28;20448;-47
2022/09/08 01:49:27;;;;;;;36.80;33.65;;;16.70;99.90;;;;;;5046794;28;20568;-46
2022/09/08 01:51:53;;;;;;;37.15;33.78;;;16.80;99.90;;;;;;5045053;28;20048;-46
2022/09/08 01:54:19;;;;;;;38.83;35.25;;;16.70;99.90;;;;;;5042319;28;20044;-46
2022/09/08 01:56:45;;;;;;;40.80;37.00;;;16.80;99.90;;;;;;5044880;28;20721;-46
2022/09/08 01:59:11;;;;;;;38.95;35.65;;;16.80;99.90;;;;;;5045299;28;20052;-46
2022/09/08 02:01:37;;;;;;;40.05;36.70;;;16.80;99.90;;;;;;5043995;28;20037;-47
2022/09/08 02:04:03;;;;;;;42.42;38.83;;;16.80;99.90;;;;;;5043308;28;20059;-49
2022/09/08 02:06:30;;;;;;;39.45;35.97;;;16.80;99.90;;;;;;5044039;28;20045;-48
2022/09/08 02:08:56;;;;;;;40.88;37.45;;;16.80;99.90;;;;;;5044575;28;20139;-48
2022/09/08 02:11:23;;;;;;;43.67;39.70;;;16.80;99.90;;;;;;5025787;28;20067;-48
2022/09/08 02:13:49;;;;;;;42.15;38.35;;;16.80;99.90;;;;;;5043174;28;20137;-49
2022/09/08 02:16:16;;;;;;;43.35;39.85;;;16.70;99.90;;;;;;5043786;28;20137;-48
2022/09/08 02:18:42;;;;;;;43.53;39.67;;;16.80;99.90;;;;;;5044229;28;20053;-48
2022/09/08 02:21:17;;;;;;;44.15;40.38;;;16.80;99.90;;;;;;5043596;28;20052;-48
2022/09/08 02:23:46;;;;;;;44.72;40.75;;;16.80;99.90;;;;;;5015988;28;20088;-52
2022/09/08 02:26:19;;;;;;;44.42;40.45;;;16.80;99.90;;;;;;5044247;28;20047;-45
2022/09/08 02:28:45;;;;;;;43.78;39.97;;;16.80;99.90;;;;;;5046341;28;20059;-47
2022/09/08 02:31:12;;;;;;;45.05;40.92;;;16.80;99.90;;;;;;5045416;28;20056;-47
2022/09/08 02:33:39;;;;;;;44.63;40.88;;;16.80;99.90;;;;;;5043556;28;20055;-49
2022/09/08 02:36:07;;;;;;;46.50;42.45;;;16.90;99.90;;;;;;5043728;28;20053;-47
2022/09/08 02:38:33;;;;;;;47.33;42.95;;;16.90;99.90;;;;;;5044548;28;20054;-48
2022/09/08 02:41:00;;;;;;;45.00;40.88;;;16.90;99.90;;;;;;5044465;28;20399;-48
2022/09/08 02:43:26;;;;;;;45.40;41.40;;;16.90;99.90;;;;;;5043115;28;20126;-47
2022/09/08 02:45:52;;;;;;;49.05;44.63;;;16.90;99.90;;;;;;5043530;28;20041;-45
2022/09/08 02:48:18;;;;;;;47.88;43.78;;;16.90;99.90;;;;;;5044344;28;20048;-47
2022/09/08 02:50:44;;;;;;;48.70;43.85;;;17.00;99.90;;;;;;5044441;28;20403;-49
2022/09/08 02:53:10;;;;;;;45.70;41.70;;;17.00;99.90;;;;;;5042895;28;20087;-50
2022/09/08 02:55:38;;;;;;;49.22;44.72;;;16.90;99.90;;;;;;5044005;28;20500;-47
2022/09/08 02:58:06;;;;;;;49.70;45.15;;;17.00;99.90;;;;;;5043476;28;20057;-51
2022/09/08 03:00:35;;;;;;;48.90;44.38;;;17.00;99.90;;;;;;5042916;28;20056;-45
2022/09/08 03:03:00;;;;;;;47.17;43.05;;;17.00;99.90;;;;;;5044516;28;20049;-49
2022/09/08 03:05:33;;;;;;;48.58;44.22;;;17.00;99.90;;;;;;5045186;28;20048;-48
2022/09/08 03:07:59;;;;;;;48.00;43.83;;;17.00;99.90;;;;;;5044144;28;20091;-50
2022/09/08 03:10:29;;;;;;;48.30;43.90;;;17.00;99.90;;;;;;5044182;28;20148;-46
2022/09/08 03:12:56;;;;;;;49.20;44.95;;;17.00;99.90;;;;;;5043949;28;20041;-47
2022/09/08 03:15:24;;;;;;;50.55;46.20;;;17.00;99.90;;;;;;5043891;28;20056;-48
2022/09/08 03:17:50;;;;;;;49.88;45.47;;;17.00;99.90;;;;;;5042911;28;20057;-49
2022/09/08 03:20:17;;;;;;;46.97;42.85;;;17.00;99.90;;;;;;5042673;28;20052;-47
2022/09/08 03:22:43;;;;;;;47.63;43.53;;;17.00;99.90;;;;;;5024777;28;20064;-47
2022/09/08 03:25:09;;;;;;;51.45;46.85;;;17.10;99.90;;;;;;5042775;28;20056;-46
2022/09/08 03:27:36;;;;;;;50.58;45.97;;;17.00;99.90;;;;;;5040549;28;20447;-47
2022/09/08 03:30:07;;;;;;;50.47;45.88;;;17.10;99.90;;;;;;5039793;28;20622;-45
2022/09/08 03:32:37;;;;;;;49.47;45.17;;;17.10;99.90;;;;;;5025044;28;20064;-46
2022/09/08 03:35:07;;;;;;;49.88;45.45;;;17.10;99.90;;;;;;5042828;28;20128;-49
2022/09/08 03:37:35;;;;;;;48.70;44.33;;;17.10;99.90;;;;;;5043146;28;20049;-48
2022/09/08 03:40:09;;;;;;;48.55;44.38;;;17.10;99.90;;;;;;5042172;28;20632;-45
2022/09/08 03:42:36;;;;;;;49.72;45.53;;;17.20;99.90;;;;;;5042485;28;20068;-48
2022/09/08 03:45:12;;;;;;;51.67;47.25;;;17.20;99.90;;;;;;5042543;28;20048;-49
2022/09/08 03:47:38;;;;;;;52.75;48.15;;;17.20;99.90;;;;;;5044102;28;20037;-46
2022/09/08 03:50:05;;;;;;;53.72;48.83;;;17.20;99.90;;;;;;5044043;28;20103;-47
2022/09/08 03:52:31;;;;;;;56.53;51.67;;;17.20;99.90;;;;;;5044240;28;20128;-50
2022/09/08 03:54:58;;;;;;;55.72;50.47;;;17.10;99.90;;;;;;5045362;28;20084;-46
2022/09/08 03:57:26;;;;;;;57.65;52.47;;;17.20;99.90;;;;;;5025602;28;20045;-48
2022/09/08 03:59:55;;;;;;;57.25;52.08;;;17.20;99.90;;;;;;5042153;28;20052;-49
2022/09/08 04:02:22;;;;;;;66.82;59.20;;;17.10;99.90;;;;;;5022643;28;20443;-49
2022/09/08 04:04:53;;;;;;;62.45;55.92;;;17.10;99.90;;;;;;5042598;28;20056;-48
2022/09/08 04:07:21;;;;;;;56.35;46.35;;;17.00;99.90;;;;;;5024288;28;20544;-46
2022/09/08 04:09:47;;;;;;;45.97;35.63;;;17.00;99.90;;;;;;5001689;28;20096;-47
2022/09/08 04:12:15;;;;;;;33.63;29.23;;;16.90;99.90;;;;;;5024272;28;20144;-47
2022/09/08 04:14:41;;;;;;;18.08;16.25;;;16.90;99.90;;;;;;5042946;28;20053;-49
2022/09/08 04:17:09;;;;;;;26.92;24.05;;;16.80;99.90;;;;;;5042746;28;20107;-46
2022/09/08 04:19:35;;;;;;;26.50;23.77;;;16.80;99.90;;;;;;5042045;28;20057;-46
2022/09/08 04:22:01;;;;;;;23.55;21.10;;;16.90;99.90;;;;;;5041010;28;20053;-51
2022/09/08 04:24:29;;;;;;;17.20;15.43;;;16.80;99.90;;;;;;5040915;28;20068;-48
2022/09/08 04:26:55;;;;;;;15.60;14.18;;;16.80;99.90;;;;;;5042635;28;20049;-46
2022/09/08 04:29:22;;;;;;;13.57;12.27;;;16.80;99.90;;;;;;5042912;28;20056;-46
2022/09/08 04:31:49;;;;;;;14.25;12.93;;;16.70;99.90;;;;;;5042694;28;20037;-47
2022/09/08 04:34:16;;;;;;;13.63;12.38;;;16.70;99.90;;;;;;5042062;28;20063;-46
2022/09/08 04:36:43;;;;;;;12.38;11.13;;;16.70;99.90;;;;;;5042976;28;20486;-48
2022/09/08 04:39:10;;;;;;;13.18;11.98;;;16.70;99.90;;;;;;5044435;28;20080;-48
2022/09/08 04:41:37;;;;;;;11.23;10.13;;;16.70;99.90;;;;;;5044683;28;20045;-49
2022/09/08 04:44:04;;;;;;;14.63;13.43;;;16.80;99.90;;;;;;5045354;28;20045;-47
2022/09/08 04:46:32;;;;;;;14.57;13.27;;;16.80;99.90;;;;;;5046666;28;20056;-46
2022/09/08 04:48:59;;;;;;;12.82;11.40;;;16.80;99.90;;;;;;5046066;28;20496;-46
2022/09/08 04:51:26;;;;;;;12.65;11.63;;;16.70;99.90;;;;;;5045964;28;20186;-48
2022/09/08 04:53:55;;;;;;;15.95;14.38;;;16.70;99.90;;;;;;5045745;28;20053;-47
2022/09/08 04:56:23;;;;;;;22.98;20.85;;;16.60;99.90;;;;;;5046497;28;20106;-46
2022/09/08 04:58:49;;;;;;;25.63;23.20;;;16.50;99.90;;;;;;5045460;28;20053;-49
2022/09/08 05:01:35;;;;;;;23.92;21.83;;;16.50;99.90;;;;;;5045283;28;20401;-49
2022/09/08 05:04:03;;;;;;;26.25;23.55;;;16.50;99.90;;;;;;5044986;28;20057;-47
2022/09/08 05:06:31;;;;;;;28.10;25.35;;;16.50;99.90;;;;;;5045778;28;20499;-48
2022/09/08 05:08:59;;;;;;;28.92;26.17;;;16.60;99.90;;;;;;5045030;28;20495;-50
2022/09/08 05:11:28;;;;;;;27.35;24.85;;;16.60;99.90;;;;;;5044891;28;20056;-48
2022/09/08 05:13:54;;;;;;;25.05;22.65;;;16.50;99.90;;;;;;5044795;28;20151;-48
2022/09/08 05:16:28;;;;;;;27.85;25.15;;;16.60;99.90;;;;;;5044951;28;20159;-47
2022/09/08 05:18:59;;;;;;;27.83;25.25;;;16.60;99.90;;;;;;5045029;28;20052;-46
2022/09/08 05:21:26;;;;;;;26.70;24.20;;;16.60;99.90;;;;;;5044529;28;20059;-49
2022/09/08 05:23:54;;;;;;;25.17;22.80;;;16.50;99.90;;;;;;5044738;28;20049;-47
2022/09/08 05:26:21;;;;;;;27.45;24.55;;;16.50;99.90;;;;;;5044311;28;20057;-47
2022/09/08 05:28:47;;;;;;;27.73;24.98;;;16.60;99.90;;;;;;5045986;28;20504;-46
2022/09/08 05:31:18;;;;;;;25.83;23.55;;;16.60;99.90;;;;;;5045464;28;20080;-47
2022/09/08 05:33:45;;;;;;;27.45;24.88;;;16.60;99.90;;;;;;5045116;28;20490;-48
2022/09/08 05:36:22;;;;;;;29.27;26.27;;;16.60;99.90;;;;;;5044938;28;20401;-46
2022/09/08 05:38:49;;;;;;;30.40;27.27;;;16.60;99.90;;;;;;5044986;28;20491;-47
2022/09/08 05:41:15;;;;;;;32.67;27.50;;;16.50;99.90;;;;;;5026566;28;20059;-47
2022/09/08 05:43:42;;;;;;;32.67;28.80;;;16.50;99.90;;;;;;5045283;28;20052;-46
2022/09/08 05:46:09;;;;;;;35.47;30.10;;;16.50;99.90;;;;;;5045867;28;20063;-47
2022/09/08 05:48:35;;;;;;;59.95;33.25;;;16.50;99.90;;;;;;5046299;28;20122;-47
2022/09/08 05:51:02;;;;;;;33.97;29.48;;;16.60;99.90;;;;;;5044205;28;20569;-49
2022/09/08 05:53:29;;;;;;;36.72;32.88;;;16.40;99.90;;;;;;5025829;28;20502;-49
2022/09/08 05:56:04;;;;;;;30.67;27.48;;;16.40;99.90;;;;;;5045023;28;20041;-45
2022/09/08 05:58:31;;;;;;;29.45;26.40;;;16.40;99.90;;;;;;5044389;28;20053;-48
2022/09/08 06:01:00;;;;;;;30.00;26.90;;;16.40;99.90;;;;;;5043980;28;20052;-46
2022/09/08 06:03:27;;;;;;;29.85;26.75;;;16.40;99.90;;;;;;5044085;28;20049;-49
2022/09/08 06:05:54;;;;;;;29.83;26.77;;;16.40;99.90;;;;;;5026826;28;20057;-48
2022/09/08 06:08:21;;;;;;;27.60;25.02;;;16.40;99.90;;;;;;5044947;28;20079;-47
2022/09/08 06:10:52;;;;;;;35.45;31.95;;;16.40;99.90;;;;;;5045239;28;20037;-46
2022/09/08 06:13:18;;;;;;;30.67;27.75;;;16.40;99.90;;;;;;5026301;28;20045;-45
2022/09/08 06:15:49;;;;;;;37.30;33.35;;;16.50;99.90;;;;;;5044948;28;20049;-46
2022/09/08 06:18:19;;;;;;;36.72;32.75;;;16.50;99.90;;;;;;5043507;28;20152;-47
2022/09/08 06:20:45;;;;;;;38.30;33.78;;;16.60;99.90;;;;;;5043713;28;20135;-50
2022/09/08 06:23:12;;;;;;;48.97;35.88;;;16.50;99.90;;;;;;5043398;28;20106;-46
2022/09/08 06:25:43;;;;;;;42.03;34.25;;;16.50;99.90;;;;;;5043526;28;20057;-47
2022/09/08 06:28:32;;;;;;;85.80;46.10;;;16.40;99.90;;;;;;5043818;28;20060;-46
2022/09/08 06:30:59;;;;;;;47.20;37.60;;;16.50;99.90;;;;;;5042824;28;20053;-46
2022/09/08 06:33:34;;;;;;;36.17;32.33;;;16.40;99.90;;;;;;5033104;28;20601;-46
2022/09/08 06:36:20;;;;;;;40.67;36.42;;;16.30;99.90;;;;;;5043848;28;20140;-45
2022/09/08 06:38:54;;;;;;;44.78;39.70;;;16.20;99.90;;;;;;5041461;28;20057;-46
2022/09/08 06:41:32;;;;;;;40.90;36.35;;;16.20;99.90;;;;;;5042874;28;20056;-46
2022/09/08 06:44:26;;;;;;;57.22;44.45;;;16.30;99.90;;;;;;5043573;28;20071;-44
2022/09/08 06:46:54;;;;;;;85.10;52.25;;;16.40;99.90;;;;;;4961872;28;20058;-45
2022/09/08 06:49:19;;;;;;;82.65;52.42;;;16.30;99.90;;;;;;4962148;28;20214;-45
2022/09/08 06:52:20;;;;;;;57.85;45.83;;;16.50;99.90;;;;;;4960666;28;20095;-45
2022/09/08 06:55:06;;;;;;;41.70;35.40;;;16.40;99.90;;;;;;4885879;29;20092;-45
2022/09/08 06:58:06;;;;;;;33.70;30.20;;;16.50;99.90;;;;;;4885401;29;20064;-45
2022/09/08 07:01:03;;;;;;;39.30;34.05;;;16.50;99.90;;;;;;4884878;29;20258;-46
2022/09/08 07:03:52;;;;;;;35.20;31.55;;;16.40;99.90;;;;;;4885138;29;20052;-48
2022/09/08 07:06:24;;;;;;;34.50;29.55;;;16.40;99.90;;;;;;4870729;29;20132;-47
2022/09/08 07:08:59;;;;;;;34.72;29.13;;;16.30;99.90;;;;;;4885629;29;20061;-45
2022/09/08 07:11:56;;;;;;;32.17;29.00;;;16.30;99.90;;;;;;4885475;29;20251;-46
2022/09/08 07:14:33;;;;;;;33.55;30.23;;;16.30;99.90;;;;;;4885594;29;20088;-45
2022/09/08 07:17:44;;;;;;;37.42;33.45;;;16.40;99.90;;;;;;4884742;29;20064;-47
2022/09/08 07:20:16;;;;;;;44.15;36.60;;;16.50;99.90;;;;;;4811272;29;20069;-49
2022/09/08 07:23:11;;;;;;;35.20;31.73;;;16.50;99.90;;;;;;4812868;29;20095;-49
2022/09/08 07:25:41;;;;;;;36.17;30.73;;;16.60;99.90;;;;;;4865776;29;20897;-46
2022/09/08 07:28:17;;;;;;;38.97;31.77;;;16.50;99.90;;;;;;4866749;29;20091;-48
2022/09/08 07:30:45;;;;;;;31.30;28.13;;;16.60;99.90;;;;;;4874599;29;20133;-46
2022/09/08 07:33:29;;;;;;;32.58;28.85;;;16.70;99.90;;;;;;4941524;29;20054;-46
2022/09/08 07:36:33;;;;;;;33.13;29.60;;;16.80;99.90;;;;;;4941236;29;20055;-45
2022/09/08 07:39:03;;;;;;;33.13;27.27;;;16.70;99.90;;;;;;4887380;29;20091;-45
2022/09/08 07:41:48;;;;;;;22.13;17.83;;;16.60;99.90;;;;;;4903534;29;20068;-46
2022/09/08 07:44:17;;;;;;;18.23;16.30;;;16.50;99.90;;;;;;4903761;29;20070;-46
2022/09/08 07:47:08;;;;;;;19.75;14.73;;;16.60;99.90;;;;;;4903718;29;20059;-49
2022/09/08 07:49:50;;;;;;;14.98;13.35;;;16.60;99.90;;;;;;4903690;29;20067;-45
2022/09/08 07:52:36;;;;;;;17.88;15.48;;;16.50;99.90;;;;;;4903289;29;20189;-47
2022/09/08 07:55:37;;;;;;;16.88;15.18;;;16.50;99.90;;;;;;4903436;29;20064;-46
2022/09/08 07:58:40;;;;;;;21.23;16.13;;;16.50;99.90;;;;;;4940552;29;20063;-50
2022/09/08 08:01:12;;;;;;;13.82;10.45;;;16.50;99.90;;;;;;4941392;29;20199;-48
2022/09/08 08:03:44;;;;;;;13.68;12.23;;;16.60;99.90;;;;;;4941475;28;20071;-46
2022/09/08 08:06:24;;;;;;;12.52;9.80;;;16.50;99.90;;;;;;4942511;29;20078;-45
2022/09/08 08:09:12;;;;;;;10.27;9.10;;;16.50;99.90;;;;;;4941900;29;20537;-48
2022/09/08 08:12:21;;;;;;;8.98;8.13;;;16.60;99.90;;;;;;4942901;29;20051;-46
2022/09/08 08:14:57;;;;;;;7.25;4.90;;;16.60;99.90;;;;;;4900475;29;20151;-45
2022/09/08 08:17:59;;;;;;;7.20;5.63;;;16.60;99.90;;;;;;4906658;29;20060;-46
2022/09/08 08:20:46;;;;;;;6.70;4.80;;;16.70;99.90;;;;;;4890086;29;20096;-46
2022/09/08 08:23:49;;;;;;;7.03;4.95;;;16.60;99.90;;;;;;4887386;29;20096;-48
2022/09/08 08:26:59;;;;;;;5.30;4.80;;;16.70;99.90;;;;;;4907938;29;20056;-46
2022/09/08 08:29:33;;;;;;;5.93;3.97;;;16.70;99.90;;;;;;4904078;29;20618;-47
2022/09/08 08:32:11;;;;;;;4.45;4.05;;;16.60;99.90;;;;;;4906516;29;20064;-45
2022/09/08 08:34:46;;;;;;;5.65;4.50;;;16.70;99.90;;;;;;4906115;29;20464;-50
2022/09/08 08:37:18;;;;;;;5.47;4.22;;;16.70;99.90;;;;;;4905887;29;20088;-48
2022/09/08 08:39:47;;;;;;;5.53;4.53;;;16.60;99.90;;;;;;4906390;29;20099;-47
2022/09/08 08:42:29;;;;;;;5.47;4.97;;;16.60;99.90;;;;;;4906434;29;20088;-47
2022/09/08 08:45:18;;;;;;;4.55;3.47;;;16.70;99.90;;;;;;4899440;29;20064;-46
2022/09/08 08:48:12;;;;;;;5.13;3.20;;;16.70;99.90;;;;;;4906849;29;20060;-49
2022/09/08 08:50:56;;;;;;;;;;;16.70;99.90;;;;;;4907412;29;20048;-47
2022/09/08 08:53:51;;;;;;;3.22;2.63;;;16.70;99.90;;;;;;4949221;28;19961;-45
2022/09/08 08:56:42;;;;;;;2.60;1.83;;;16.70;99.90;;;;;;5026177;28;20651;-46
2022/09/08 08:59:11;;;;;;;3.97;3.00;;;16.80;99.90;;;;;;5025351;28;20104;-45
2022/09/08 09:01:55;;;;;;;6.60;3.15;;;16.70;99.90;;;;;;5026416;28;20041;-46
2022/09/08 09:04:34;;;;;;;6.35;3.90;;;16.80;99.90;;;;;;5026274;28;20053;-46
2022/09/08 09:07:30;;;;;;;5.03;3.90;;;16.60;99.90;;;;;;5025732;28;20053;-46
2022/09/08 09:10:03;;;;;;;6.43;3.78;;;16.60;99.90;;;;;;5025023;28;20045;-47
2022/09/08 09:12:59;;;;;;;4.97;4.30;;;16.70;99.90;;;;;;5024856;28;20053;-46
2022/09/08 09:15:43;;;;;;;5.50;4.28;;;16.70;99.90;;;;;;5024430;28;20060;-47
2022/09/08 09:18:12;;;;;;;5.43;4.93;;;16.70;99.90;;;;;;5024128;28;20496;-46
2022/09/08 09:20:41;;;;;;;6.65;5.05;;;16.80;99.90;;;;;;5022518;28;20072;-45
2022/09/08 09:23:34;;;;;;;8.07;6.75;;;16.70;99.90;;;;;;5025293;28;20076;-45
2022/09/08 09:26:12;;;;;;;7.50;6.43;;;16.80;99.90;;;;;;5004470;28;20057;-46
2022/09/08 09:28:54;;;;;;;8.98;6.78;;;16.80;99.90;;;;;;5004433;28;20050;-45
2022/09/08 09:31:58;;;;;;;9.27;8.45;;;16.90;99.90;;;;;;5005520;28;20045;-47
2022/09/08 09:34:33;;;;;;;12.15;9.18;;;16.80;99.90;;;;;;5005461;28;20061;-48
2022/09/08 09:37:28;;;;;;;17.77;11.27;;;16.80;99.90;;;;;;5005839;28;20057;-47
2022/09/08 09:40:15;;;;;;;13.88;10.75;;;16.80;99.90;;;;;;5005548;28;20128;-50
2022/09/08 09:43:00;;;;;;;13.82;10.85;;;17.00;99.90;;;;;;5003872;28;20654;-45
2022/09/08 09:45:57;;;;;;;17.83;12.75;;;16.90;99.90;;;;;;5004213;28;20065;-45
2022/09/08 09:48:32;;;;;;;16.63;10.90;;;17.10;99.90;;;;;;5005451;28;20057;-46
2022/09/08 09:51:07;;;;;;;18.00;12.95;;;17.00;99.90;;;;;;5004811;28;20092;-46
2022/09/08 09:53:52;;;;;;;18.52;12.93;;;17.00;99.90;;;;;;5000249;28;20997;-46
2022/09/08 09:56:53;;;;;;;11.68;10.10;;;17.00;99.90;;;;;;4997596;28;20046;-45
2022/09/08 09:59:49;;;;;;;11.27;7.63;;;16.90;99.90;;;;;;4961731;28;20422;-47
2022/09/08 10:02:57;;;;;;;11.88;9.65;;;16.80;99.90;;;;;;4960514;28;20049;-46
2022/09/08 10:05:51;;;;;;;12.35;10.15;;;16.70;99.90;;;;;;4960509;28;20434;-48
2022/09/08 10:09:04;;;;;;;10.25;7.72;;;16.80;99.90;;;;;;4945481;28;20054;-47
2022/09/08 10:11:57;;;;;;;11.20;7.30;;;16.80;99.90;;;;;;4958561;28;20098;-47
2022/09/08 10:15:00;;;;;;;8.60;5.20;;;16.70;99.90;;;;;;4960165;28;20051;-45
2022/09/08 10:18:01;;;;;;;10.83;3.80;;;16.80;99.90;;;;;;4959503;28;20598;-47
2022/09/08 10:20:55;;;;;;;8.30;4.00;;;16.80;99.90;;;;;;4961592;28;20057;-45
2022/09/08 10:23:39;;;;;;;8.57;4.45;;;16.90;99.90;;;;;;4960188;28;20055;-46
2022/09/08 10:26:21;;;;;;;11.43;3.92;;;16.80;99.90;;;;;;4955460;28;20054;-46
2022/09/08 10:29:25;;;;;;;7.25;4.88;;;16.80;99.90;;;;;;4956996;28;20066;-48
2022/09/08 10:32:26;;;;;;;9.38;5.03;;;16.80;99.90;;;;;;4954716;28;20525;-46
2022/09/08 10:35:25;;;;;;;9.05;4.70;;;16.80;99.90;;;;;;4944072;28;20065;-49
2022/09/08 10:38:08;;;;;;;7.40;5.80;;;17.00;99.90;;;;;;5002740;28;20421;-49
2022/09/08 10:41:10;;;;;;;7.25;5.32;;;17.00;99.90;;;;;;5017359;28;20160;-47
2022/09/08 10:43:38;;;;;;;9.85;7.03;;;17.00;99.90;;;;;;4998643;28;20176;-47
2022/09/08 10:46:22;;;;;;;10.32;6.95;;;17.10;99.90;;;;;;5003009;28;20378;-49
2022/09/08 10:49:06;;;;;;;;;;;17.00;99.90;;;;;;5002851;28;20201;-46
2022/09/08 10:51:38;;;;;;;8.32;5.60;;;17.10;99.90;;;;;;5000035;28;20448;-47
2022/09/08 10:54:10;;;;;;;9.25;4.80;;;17.10;99.90;;;;;;4996446;28;20065;-46
2022/09/08 10:56:39;;;;;;;7.95;5.50;;;17.10;99.90;;;;;;5002888;28;20513;-46
2022/09/08 10:59:27;;;;;;;7.50;5.57;;;17.20;99.90;;;;;;5004355;28;20482;-46
2022/09/08 11:02:19;;;;;;;8.50;5.82;;;17.20;99.90;;;;;;5002227;28;20058;-49
2022/09/08 11:04:45;;;;;;;9.05;5.60;;;17.20;99.90;;;;;;4998621;28;20057;-47
2022/09/08 11:07:24;;;;;;;6.05;4.93;;;17.10;99.90;;;;;;5001817;28;20081;-46
2022/09/08 11:10:28;;;;;;;8.40;6.03;;;17.10;99.90;;;;;;5002896;28;20060;-46
2022/09/08 11:13:06;;;;;;;8.07;5.65;;;17.20;99.90;;;;;;4999396;28;20096;-46
2022/09/08 11:15:45;;;;;;;5.80;5.30;;;17.10;99.90;;;;;;4997969;28;20038;-46
2022/09/08 11:18:48;;;;;;;7.05;5.57;;;17.20;99.90;;;;;;5001972;28;20046;-48
2022/09/08 11:21:27;;;;;;;10.48;6.53;;;17.10;99.90;;;;;;5000897;28;20256;-46
2022/09/08 11:23:56;;;;;;;7.18;6.20;;;17.20;99.90;;;;;;5002192;28;20092;-49
2022/09/08 11:26:32;;;;;;;8.88;6.95;;;17.20;99.90;;;;;;5034331;28;20103;-46
2022/09/08 11:29:15;;;;;;;8.23;6.80;;;17.20;99.90;;;;;;5037933;28;20076;-48
2022/09/08 11:32:01;;;;;;;8.30;6.80;;;17.20;99.90;;;;;;5043689;28;20048;-47
2022/09/08 11:34:33;;;;;;;9.35;7.97;;;17.20;99.90;;;;;;5044362;28;20059;-47
2022/09/08 11:37:28;;;;;;;9.50;8.35;;;17.10;99.90;;;;;;5043706;28;20072;-47
2022/09/08 11:40:18;;;;;;;10.75;8.38;;;17.10;99.90;;;;;;4962157;28;20069;-47
2022/09/08 11:43:06;;;;;;;9.82;8.15;;;17.20;99.90;;;;;;4945942;28;20092;-47
2022/09/08 11:45:55;;;;;;;9.45;8.65;;;17.20;99.90;;;;;;4924456;29;20102;-46
2022/09/08 11:48:39;;;;;;;10.82;9.73;;;17.20;99.90;;;;;;4916455;29;20058;-46
2022/09/08 11:51:26;;;;;;;11.73;10.43;;;17.20;99.90;;;;;;4923483;29;20063;-45
2022/09/08 11:54:36;;;;;;;13.20;10.35;;;17.40;99.90;;;;;;4923104;29;20051;-48
2022/09/08 11:57:07;;;;;;;15.80;10.95;;;17.30;99.90;;;;;;4884996;29;20738;-47
2022/09/08 11:59:58;;;;;;;11.77;10.57;;;17.40;99.90;;;;;;4870523;29;20580;-46
2022/09/08 12:02:41;;;;;;;12.38;11.07;;;17.40;99.90;;;;;;4886098;29;20466;-47
2022/09/08 12:05:25;;;;;;;;;;;17.50;99.90;;;;;;4886747;29;20069;-45
2022/09/08 12:07:57;;;;;;;13.35;11.73;;;17.60;99.90;;;;;;4885920;29;19927;-46
2022/09/08 12:10:34;;;;;;;13.77;12.48;;;17.70;99.90;;;;;;4885652;29;20171;-46
2022/09/08 12:13:11;;;;;;;13.60;12.20;;;17.70;99.90;;;;;;4885480;29;20171;-47
2022/09/08 12:15:40;;;;;;;15.10;13.73;;;18.00;99.90;;;;;;4871695;29;20056;-46
2022/09/08 12:18:21;;;;;;;18.58;15.77;;;17.90;99.90;;;;;;4908308;29;20062;-46
2022/09/08 12:21:29;;;;;;;14.90;13.50;;;18.00;99.90;;;;;;4905579;29;20064;-47
2022/09/08 12:24:19;;;;;;;16.67;14.77;;;18.10;99.90;;;;;;4915851;29;20048;-46
2022/09/08 12:27:03;;;;;;;17.10;15.30;;;18.00;99.90;;;;;;4927259;28;20371;-47
2022/09/08 12:30:02;;;;;;;18.15;16.45;;;18.00;99.90;;;;;;4980491;28;20058;-46
2022/09/08 12:32:51;;;;;;;18.45;16.65;;;18.10;99.90;;;;;;4963764;28;20600;-47
2022/09/08 12:35:43;;;;;;;18.33;16.85;;;18.20;99.90;;;;;;4981030;28;20065;-47
2022/09/08 12:38:25;;;;;;;20.15;18.17;;;18.30;99.90;;;;;;4974732;28;20521;-48
2022/09/08 12:41:32;;;;;;;21.27;19.20;;;18.40;99.90;;;;;;4966599;28;20548;-48
2022/09/08 12:44:33;;;;;;;21.00;18.98;;;18.40;99.90;;;;;;4943414;29;20539;-48
2022/09/08 12:47:22;;;;;;;22.05;20.05;;;18.60;99.90;;;;;;4871160;29;20096;-48
2022/09/08 12:50:33;;;;;;;20.88;18.88;;;18.70;99.90;;;;;;4886038;29;20211;-48
2022/09/08 12:53:27;;;;;;;21.83;19.83;;;18.80;99.90;;;;;;4885627;29;20057;-50
2022/09/08 12:56:19;;;;;;;22.00;19.75;;;19.00;99.90;;;;;;4886347;29;20091;-47
2022/09/08 12:59:09;;;;;;;21.88;19.75;;;18.90;99.90;;;;;;4822752;29;20057;-48
2022/09/08 13:01:51;;;;;;;22.10;20.13;;;19.00;99.90;;;;;;4832681;29;20061;-47
2022/09/08 13:04:35;;;;;;;22.88;20.70;;;19.00;99.90;;;;;;4833625;29;20693;-47
2022/09/08 13:07:16;;;;;;;22.58;20.40;;;19.10;99.90;;;;;;4833943;29;20198;-48
2022/09/08 13:09:54;;;;;;;23.85;21.52;;;19.10;99.90;;;;;;4832782;29;20137;-48
2022/09/08 13:12:57;;;;;;;22.85;20.75;;;19.10;99.90;;;;;;4832856;29;20069;-47
2022/09/08 13:15:42;;;;;;;22.58;20.38;;;19.20;99.90;;;;;;4833551;29;20062;-49
2022/09/08 13:18:35;;;;;;;24.27;22.05;;;19.30;99.90;;;;;;4834145;29;20640;-48
2022/09/08 13:21:14;;;;;;;22.83;20.95;;;19.40;99.90;;;;;;4855206;29;20061;-47
2022/09/08 13:23:55;;;;;;;24.13;21.98;;;19.40;99.90;;;;;;4922356;28;20934;-47
2022/09/08 13:26:43;;;;;;;22.50;20.38;;;19.50;99.90;;;;;;4965573;28;20058;-47
2022/09/08 13:29:27;;;;;;;21.48;19.52;;;19.50;99.90;;;;;;4965221;28;20442;-48